createdAt,value
2023-03-18T00:01:07.695Z,5.51
2023-03-18T00:03:40.754Z,5.41
2023-03-18T00:06:15.454Z,5.37
2023-03-18T00:08:50.791Z,5.38
2023-03-18T00:11:24.033Z,5.32
2023-03-18T00:13:58.116Z,5.36
2023-03-18T00:16:31.443Z,5.33
2023-03-18T00:19:05.210Z,5.32
2023-03-18T00:21:38.284Z,5.32
2023-03-18T00:24:13.016Z,5.28
2023-03-18T00:26:46.475Z,5.34
2023-03-18T00:29:19.728Z,5.28
2023-03-18T00:31:52.662Z,5.31
2023-03-18T00:34:26.073Z,5.43
2023-03-18T00:37:00.264Z,5.37
2023-03-18T00:39:35.749Z,5.31
2023-03-18T00:42:10.907Z,5.18
2023-03-18T00:44:45.261Z,5.16
2023-03-18T00:47:18.220Z,5.14
2023-03-18T00:49:51.503Z,5.13
2023-03-18T00:52:25.355Z,5.22
2023-03-18T00:55:00.191Z,5.20
2023-03-18T00:57:33.525Z,5.18
2023-03-18T01:00:07.653Z,5.21
2023-03-18T01:02:41.319Z,5.32
2023-03-18T01:05:14.784Z,5.35
2023-03-18T01:07:48.917Z,5.18
2023-03-18T01:10:23.384Z,5.19
2023-03-18T01:12:57.164Z,5.22
2023-03-18T01:15:30.722Z,5.12
2023-03-18T01:18:04.495Z,5.27
2023-03-18T01:20:38.108Z,4.96
2023-03-18T01:23:12.741Z,5.16
2023-03-18T01:25:47.529Z,5.06
2023-03-18T01:28:21.694Z,5.11
2023-03-18T01:30:55.295Z,5.08
2023-03-18T01:33:29.929Z,4.89
2023-03-18T01:36:03.849Z,5.01
2023-03-18T01:38:37.186Z,5.00
2023-03-18T01:41:12.176Z,4.97
2023-03-18T01:43:45.424Z,5.01
2023-03-18T01:46:33.684Z,4.90
2023-03-18T01:49:08.950Z,4.96
2023-03-18T01:51:43.220Z,4.79
2023-03-18T01:54:16.578Z,4.83
2023-03-18T01:56:51.867Z,4.89
2023-03-18T01:59:26.454Z,4.94
2023-03-18T02:02:03.357Z,4.91
2023-03-18T02:04:39.192Z,4.68
2023-03-18T02:07:15.676Z,4.73
2023-03-18T02:09:49.259Z,4.60
2023-03-18T02:12:25.540Z,4.55
2023-03-18T02:15:00.847Z,4.56
2023-03-18T02:17:35.539Z,4.53
2023-03-18T02:20:16.033Z,4.51
2023-03-18T02:22:52.190Z,4.50
2023-03-18T02:25:33.001Z,4.21
2023-03-18T02:28:09.899Z,4.15
2023-03-18T02:30:43.647Z,3.91
2023-03-18T02:33:17.953Z,3.88
2023-03-18T02:35:52.893Z,3.87
2023-03-18T02:38:26.485Z,3.75
2023-03-18T02:40:59.353Z,3.92
2023-03-18T02:43:34.330Z,3.56
2023-03-18T02:46:14.177Z,3.91
2023-03-18T02:48:49.009Z,3.82
2023-03-18T02:51:23.296Z,3.66
2023-03-18T02:53:56.713Z,3.87
2023-03-18T02:56:30.158Z,3.79
2023-03-18T02:59:04.716Z,3.80
2023-03-18T03:01:39.295Z,3.74
2023-03-18T03:04:12.541Z,3.82
2023-03-18T03:06:46.045Z,3.88
2023-03-18T03:09:19.926Z,3.79
2023-03-18T03:11:53.734Z,3.78
2023-03-18T03:14:30.117Z,3.95
2023-03-18T03:17:04.332Z,3.78
2023-03-18T03:19:37.288Z,3.83
2023-03-18T03:22:10.465Z,3.84
2023-03-18T03:24:43.341Z,3.98
2023-03-18T03:27:16.766Z,3.94
2023-03-18T03:29:51.240Z,3.80
2023-03-18T03:32:24.734Z,3.93
2023-03-18T03:34:57.656Z,3.75
2023-03-18T03:37:30.700Z,3.82
2023-03-18T03:40:06.200Z,3.78
2023-03-18T03:42:39.155Z,3.82
2023-03-18T03:45:14.999Z,3.92
2023-03-18T03:47:48.668Z,3.84
2023-03-18T03:50:21.795Z,3.78
2023-03-18T03:52:56.098Z,3.75
2023-03-18T03:55:29.355Z,3.62
2023-03-18T03:58:02.359Z,3.60
2023-03-18T04:00:37.212Z,3.54
2023-03-18T04:03:10.609Z,3.62
2023-03-18T04:05:43.987Z,3.42
2023-03-18T04:08:16.973Z,3.54
2023-03-18T04:10:49.880Z,3.51
2023-03-18T04:13:25.277Z,3.47
2023-03-18T04:16:00.991Z,3.46
2023-03-18T04:18:34.073Z,3.41
2023-03-18T04:21:08.121Z,3.42
2023-03-18T04:23:41.005Z,3.24
2023-03-18T04:26:13.972Z,3.30
2023-03-18T04:28:47.483Z,3.27
2023-03-18T04:31:22.001Z,3.19
2023-03-18T04:33:55.596Z,3.22
2023-03-18T04:36:29.369Z,3.29
2023-03-18T04:39:02.392Z,3.35
2023-03-18T04:41:35.263Z,3.39
2023-03-18T04:44:08.489Z,3.22
2023-03-18T04:46:43.682Z,3.14
2023-03-18T04:49:17.373Z,3.09
2023-03-18T04:51:50.291Z,3.09
2023-03-18T04:54:23.465Z,3.08
2023-03-18T04:56:56.666Z,3.13
2023-03-18T04:59:29.832Z,3.23
2023-03-18T05:02:04.830Z,3.13
2023-03-18T05:04:39.412Z,3.17
2023-03-18T05:07:13.717Z,3.25
2023-03-18T05:09:47.279Z,3.14
2023-03-18T05:12:22.788Z,3.23
2023-03-18T05:14:56.502Z,3.17
2023-03-18T05:17:31.362Z,3.05
2023-03-18T05:20:05.482Z,3.07
2023-03-18T05:22:38.621Z,3.03
2023-03-18T05:25:12.778Z,3.08
2023-03-18T05:27:47.658Z,3.02
2023-03-18T05:30:21.519Z,3.15
2023-03-18T05:32:56.191Z,3.18
2023-03-18T05:35:29.604Z,3.15
2023-03-18T05:38:02.720Z,3.27
2023-03-18T05:40:36.087Z,3.19
2023-03-18T05:43:09.280Z,3.26
2023-03-18T05:45:42.896Z,3.41
2023-03-18T05:48:17.572Z,3.62
2023-03-18T05:50:51.329Z,3.64
2023-03-18T05:53:24.482Z,3.73
2023-03-18T05:55:57.910Z,3.91
2023-03-18T05:58:31.474Z,3.94
2023-03-18T06:01:04.683Z,4.14
2023-03-18T06:03:39.085Z,4.19
2023-03-18T06:06:12.571Z,4.19
2023-03-18T06:08:45.315Z,4.37
2023-03-18T06:11:19.576Z,4.51
2023-03-18T06:13:53.024Z,4.45
2023-03-18T06:16:26.679Z,4.73
2023-03-18T06:19:01.192Z,4.82
2023-03-18T06:21:34.186Z,4.95
2023-03-18T06:24:07.825Z,5.02
2023-03-18T06:26:41.109Z,5.08
2023-03-18T06:29:14.210Z,5.12
2023-03-18T06:31:47.427Z,5.21
2023-03-18T06:34:21.685Z,5.26
2023-03-18T06:36:54.591Z,5.35
2023-03-18T06:39:28.558Z,5.47
2023-03-18T06:42:01.569Z,5.58
2023-03-18T06:44:35.441Z,5.63
2023-03-18T06:47:08.932Z,5.72
2023-03-18T06:49:43.308Z,5.76
2023-03-18T06:52:17.348Z,5.79
2023-03-18T06:54:50.610Z,5.86
2023-03-18T06:57:23.711Z,5.99
2023-03-18T06:59:57.260Z,6.07
2023-03-18T07:02:30.540Z,6.00
2023-03-18T07:05:04.889Z,6.12
2023-03-18T07:07:38.741Z,6.28
2023-03-18T07:10:17.292Z,6.37
2023-03-18T07:12:52.395Z,6.45
2023-03-18T07:15:26.538Z,6.55
2023-03-18T07:18:01.844Z,6.49
2023-03-18T07:20:36.770Z,6.59
2023-03-18T07:23:10.020Z,6.33
2023-03-18T07:25:44.826Z,6.50
2023-03-18T07:28:18.035Z,6.71
2023-03-18T07:30:53.954Z,6.62
2023-03-18T07:33:27.228Z,6.75
2023-03-18T07:36:01.794Z,6.68
2023-03-18T07:38:35.875Z,6.75
2023-03-18T07:41:09.555Z,6.74
2023-03-18T07:43:43.632Z,6.76
2023-03-18T07:46:16.587Z,6.79
2023-03-18T07:48:49.722Z,6.68
2023-03-18T07:51:24.200Z,6.83
2023-03-18T07:53:57.701Z,6.66
2023-03-18T07:56:30.920Z,6.73
2023-03-18T07:59:04.441Z,6.95
2023-03-18T08:01:37.463Z,6.93
2023-03-18T08:04:11.775Z,6.89
2023-03-18T08:06:46.168Z,6.96
2023-03-18T08:09:19.367Z,6.90
2023-03-18T08:12:02.814Z,6.84
2023-03-18T08:14:36.828Z,7.01
2023-03-18T08:17:10.062Z,6.95
2023-03-18T08:19:43.130Z,7.00
2023-03-18T08:22:17.811Z,6.90
2023-03-18T08:24:51.177Z,6.77
2023-03-18T08:27:24.108Z,6.64
2023-03-18T08:29:57.414Z,6.69
2023-03-18T08:32:30.724Z,6.59
2023-03-18T08:35:05.211Z,6.71
2023-03-18T08:37:39.806Z,6.83
2023-03-18T08:40:13.576Z,6.96
2023-03-18T08:42:46.914Z,6.96
2023-03-18T08:45:20.370Z,6.94
2023-03-18T08:47:53.833Z,7.01
2023-03-18T08:50:28.676Z,7.05
2023-03-18T08:53:04.036Z,6.95
2023-03-18T08:55:38.236Z,7.06
2023-03-18T08:58:11.707Z,6.96
2023-03-18T09:00:44.964Z,7.07
2023-03-18T09:03:17.870Z,7.10
2023-03-18T09:05:51.213Z,7.10
2023-03-18T09:08:25.853Z,7.06
2023-03-18T09:10:59.747Z,6.97
2023-03-18T09:13:34.160Z,6.89
2023-03-18T09:16:08.481Z,6.87
2023-03-18T09:18:44.449Z,6.91
2023-03-18T09:21:19.199Z,6.82
2023-03-18T09:23:53.561Z,6.80
2023-03-18T09:26:26.570Z,6.86
2023-03-18T09:28:59.548Z,6.82
2023-03-18T09:31:32.715Z,6.71
2023-03-18T09:34:07.192Z,6.60
2023-03-18T09:36:41.174Z,6.61
2023-03-18T09:39:15.439Z,6.60
2023-03-18T09:41:54.162Z,6.60
2023-03-18T09:44:29.536Z,6.57
2023-03-18T09:47:14.469Z,6.58
2023-03-18T09:49:54.048Z,6.74
2023-03-18T09:52:29.021Z,6.69
2023-03-18T09:55:05.966Z,6.58
2023-03-18T09:57:42.473Z,6.70
2023-03-18T10:00:20.571Z,6.66
2023-03-18T10:02:55.125Z,6.57
2023-03-18T10:05:31.431Z,6.49
2023-03-18T10:08:09.219Z,6.56
2023-03-18T10:10:46.220Z,6.68
2023-03-18T10:13:22.745Z,6.49
2023-03-18T10:15:58.086Z,6.62
2023-03-18T10:18:32.602Z,6.55
2023-03-18T10:21:11.606Z,6.45
2023-03-18T10:23:49.651Z,6.36
2023-03-18T10:26:28.756Z,6.44
2023-03-18T10:29:09.367Z,6.42
2023-03-18T10:31:48.852Z,6.51
2023-03-18T10:34:23.145Z,6.58
2023-03-18T10:36:59.400Z,6.66
2023-03-18T10:39:33.784Z,6.59
2023-03-18T10:42:19.396Z,6.62
2023-03-18T10:44:53.300Z,6.75
2023-03-18T10:47:29.417Z,6.82
2023-03-18T10:50:06.191Z,6.86
2023-03-18T10:52:41.832Z,6.77
2023-03-18T10:55:17.303Z,6.76
2023-03-18T10:57:52.491Z,6.76
2023-03-18T11:00:28.647Z,6.74
2023-03-18T11:03:02.724Z,6.84
2023-03-18T11:05:37.206Z,6.97
2023-03-18T11:08:29.519Z,7.02
2023-03-18T11:11:21.772Z,7.01
2023-03-18T11:13:58.241Z,7.09
2023-03-18T11:16:35.335Z,7.08
2023-03-18T11:19:10.261Z,7.01
2023-03-18T11:21:43.576Z,7.13
2023-03-18T11:24:36.219Z,7.13
2023-03-18T11:27:30.288Z,7.11
2023-03-18T11:30:18.696Z,7.22
2023-03-18T11:32:58.834Z,7.22
2023-03-18T11:35:34.972Z,7.32
2023-03-18T11:38:15.065Z,7.22
2023-03-18T11:40:48.769Z,7.30
2023-03-18T11:43:25.630Z,7.46
2023-03-18T11:46:01.811Z,7.61
2023-03-18T11:48:36.955Z,7.46
2023-03-18T11:51:24.596Z,7.50
2023-03-18T11:54:11.147Z,7.48
2023-03-18T11:56:47.857Z,7.59
2023-03-18T11:59:29.042Z,7.69
2023-03-18T12:02:17.851Z,7.69
2023-03-18T12:04:56.431Z,7.63
2023-03-18T12:07:41.669Z,7.71
2023-03-18T12:10:20.763Z,7.85
2023-03-18T12:13:01.999Z,7.74
2023-03-18T12:15:41.105Z,7.63
2023-03-18T12:18:24.334Z,7.70
2023-03-18T12:21:02.200Z,7.77
2023-03-18T12:23:41.312Z,7.77
2023-03-18T12:26:16.786Z,7.79
2023-03-18T12:29:02.106Z,7.80
2023-03-18T12:31:41.764Z,7.71
2023-03-18T12:34:21.323Z,7.87
2023-03-18T12:37:00.490Z,7.82
2023-03-18T12:39:54.287Z,7.61
2023-03-18T12:42:37.282Z,7.67
2023-03-18T12:45:11.312Z,7.51
2023-03-18T12:47:46.901Z,7.50
2023-03-18T12:50:23.000Z,7.55
2023-03-18T12:52:58.169Z,7.71
2023-03-18T12:55:32.666Z,7.80
2023-03-18T12:58:07.526Z,7.71
2023-03-18T13:00:45.371Z,7.78
2023-03-18T13:03:26.316Z,7.90
2023-03-18T13:06:05.132Z,7.83
2023-03-18T13:08:55.831Z,7.77
2023-03-18T13:11:46.597Z,7.77
2023-03-18T13:14:25.897Z,7.87
2023-03-18T13:17:00.390Z,7.76
2023-03-18T13:19:35.277Z,7.76
2023-03-18T13:22:17.925Z,7.76
2023-03-18T13:24:56.685Z,7.80
2023-03-18T13:27:35.836Z,7.84
2023-03-18T13:30:14.559Z,7.90
2023-03-18T13:33:05.167Z,7.93
2023-03-18T13:35:50.628Z,7.94
2023-03-18T13:38:33.834Z,7.93
2023-03-18T13:41:12.170Z,8.02
2023-03-18T13:43:49.490Z,8.01
2023-03-18T13:46:24.525Z,7.97
2023-03-18T13:48:58.887Z,7.97
2023-03-18T13:51:50.327Z,8.05
2023-03-18T13:54:25.868Z,8.04
2023-03-18T13:57:16.557Z,8.13
2023-03-18T13:59:50.601Z,8.08
2023-03-18T14:02:42.578Z,8.06
2023-03-18T14:05:42.661Z,8.09
2023-03-18T14:08:30.727Z,8.13
2023-03-18T14:11:23.137Z,8.04
2023-03-18T14:13:58.925Z,8.02
2023-03-18T14:16:52.954Z,8.01
2023-03-18T14:19:32.307Z,8.09
2023-03-18T14:22:09.352Z,8.13
2023-03-18T14:25:02.910Z,8.09
2023-03-18T14:27:45.685Z,8.04
2023-03-18T14:30:41.269Z,8.14
2023-03-18T14:33:33.213Z,8.17
2023-03-18T14:36:10.279Z,8.11
2023-03-18T14:38:47.309Z,8.07
2023-03-18T14:41:25.603Z,8.17
2023-03-18T14:44:10.033Z,8.15
2023-03-18T14:46:46.603Z,8.12
2023-03-18T14:49:43.246Z,8.19
2023-03-18T14:52:21.630Z,8.10
2023-03-18T14:54:56.122Z,8.10
2023-03-18T14:57:29.661Z,8.09
2023-03-18T15:00:06.616Z,8.08
2023-03-18T15:02:41.183Z,8.10
2023-03-18T15:05:16.619Z,8.12
2023-03-18T15:07:53.009Z,8.03
2023-03-18T15:10:27.979Z,8.09
2023-03-18T15:13:06.961Z,8.03
2023-03-18T15:15:41.376Z,8.03
2023-03-18T15:18:21.271Z,8.13
2023-03-18T15:20:56.378Z,8.11
2023-03-18T15:23:32.049Z,8.11
2023-03-18T15:26:09.394Z,8.11
2023-03-18T15:28:47.764Z,8.16
2023-03-18T15:31:28.457Z,8.12
2023-03-18T15:34:12.578Z,8.14
2023-03-18T15:36:46.715Z,8.16
2023-03-18T15:39:22.606Z,8.10
2023-03-18T15:41:57.085Z,8.06
2023-03-18T15:44:31.262Z,8.04
2023-03-18T15:47:08.256Z,8.04
2023-03-18T15:49:50.486Z,8.00
2023-03-18T15:52:25.442Z,7.92
2023-03-18T15:54:58.748Z,7.89
2023-03-18T15:57:34.753Z,7.89
2023-03-18T16:00:10.786Z,7.90
2023-03-18T16:02:44.366Z,7.87
2023-03-18T16:05:19.864Z,7.89
2023-03-18T16:07:54.239Z,7.81
2023-03-18T16:10:27.908Z,7.81
2023-03-18T16:13:04.050Z,7.76
2023-03-18T16:15:37.578Z,7.77
2023-03-18T16:18:10.847Z,7.69
2023-03-18T16:20:46.115Z,7.70
2023-03-18T16:23:19.108Z,7.66
2023-03-18T16:25:53.019Z,7.62
2023-03-18T16:28:28.166Z,7.56
2023-03-18T16:31:01.733Z,7.53
2023-03-18T16:33:35.686Z,7.50
2023-03-18T16:36:16.908Z,7.46
2023-03-18T16:38:50.713Z,7.37
2023-03-18T16:41:23.710Z,7.35
2023-03-18T16:43:56.683Z,7.28
2023-03-18T16:46:30.367Z,7.28
2023-03-18T16:49:03.483Z,7.31
2023-03-18T16:51:37.683Z,7.18
2023-03-18T16:54:21.067Z,7.12
2023-03-18T16:56:55.979Z,7.14
2023-03-18T16:59:30.606Z,7.19
2023-03-18T17:02:04.212Z,7.07
2023-03-18T17:04:38.238Z,7.09
2023-03-18T17:07:13.142Z,7.04
2023-03-18T17:09:46.719Z,7.05
2023-03-18T17:12:21.533Z,6.96
2023-03-18T17:14:56.502Z,6.92
2023-03-18T17:17:35.735Z,6.94
2023-03-18T17:20:16.111Z,6.86
2023-03-18T17:22:50.418Z,6.93
2023-03-18T17:25:25.629Z,6.87
2023-03-18T17:27:59.865Z,6.89
2023-03-18T17:30:34.622Z,6.88
2023-03-18T17:33:18.978Z,6.84
2023-03-18T17:35:52.858Z,6.84
2023-03-18T17:38:27.495Z,6.82
2023-03-18T17:41:01.153Z,6.80
2023-03-18T17:43:35.232Z,6.76
2023-03-18T17:46:08.889Z,6.77
2023-03-18T17:48:42.125Z,6.70
2023-03-18T17:51:17.005Z,6.69
2023-03-18T17:53:53.983Z,6.68
2023-03-18T17:56:27.980Z,6.64
2023-03-18T17:59:01.354Z,6.62
2023-03-18T18:01:34.397Z,6.63
2023-03-18T18:04:08.136Z,6.61
2023-03-18T18:06:41.677Z,6.61
2023-03-18T18:09:16.594Z,6.62
2023-03-18T18:11:51.027Z,6.57
2023-03-18T18:14:25.987Z,6.59
2023-03-18T18:16:59.616Z,6.52
2023-03-18T18:19:33.866Z,6.51
2023-03-18T18:22:07.522Z,6.49
2023-03-18T18:24:42.088Z,6.45
2023-03-18T18:27:15.487Z,6.51
2023-03-18T18:29:48.501Z,6.54
2023-03-18T18:32:24.803Z,6.52
2023-03-18T18:34:58.078Z,6.53
2023-03-18T18:37:31.769Z,6.45
2023-03-18T18:40:06.936Z,6.43
2023-03-18T18:42:41.890Z,6.43
2023-03-18T18:45:18.140Z,6.44
2023-03-18T18:47:51.829Z,6.37
2023-03-18T18:50:28.922Z,6.40
2023-03-18T18:53:02.007Z,6.41
2023-03-18T18:55:36.601Z,6.40
2023-03-18T18:58:16.724Z,6.41
2023-03-18T19:00:50.568Z,6.36
2023-03-18T19:03:25.134Z,6.27
2023-03-18T19:05:59.703Z,6.14
2023-03-18T19:08:36.055Z,6.06
2023-03-18T19:11:12.636Z,6.12
2023-03-18T19:13:49.031Z,6.04
2023-03-18T19:16:28.180Z,6.08
2023-03-18T19:19:01.547Z,5.97
2023-03-18T19:21:35.135Z,5.99
2023-03-18T19:24:20.277Z,5.99
2023-03-18T19:26:55.395Z,6.09
2023-03-18T19:29:29.066Z,6.09
2023-03-18T19:32:02.431Z,6.07
2023-03-18T19:34:35.574Z,6.08
2023-03-18T19:37:12.362Z,6.10
2023-03-18T19:39:46.032Z,6.18
2023-03-18T19:42:20.384Z,6.15
2023-03-18T19:44:53.547Z,6.17
2023-03-18T19:47:28.113Z,6.24
2023-03-18T19:50:01.752Z,6.24
2023-03-18T19:52:34.920Z,6.27
2023-03-18T19:55:13.932Z,6.32
2023-03-18T19:57:49.265Z,6.34
2023-03-18T20:00:24.446Z,6.37
2023-03-18T20:02:58.368Z,6.34
2023-03-18T20:05:31.958Z,6.39
2023-03-18T20:08:04.991Z,6.40
2023-03-18T20:10:38.452Z,6.40
2023-03-18T20:13:16.140Z,6.44
2023-03-18T20:15:50.061Z,6.47
2023-03-18T20:18:23.052Z,6.48
2023-03-18T20:20:56.143Z,6.47
2023-03-18T20:23:30.145Z,6.49
2023-03-18T20:26:03.324Z,6.52
2023-03-18T20:28:41.508Z,6.56
2023-03-18T20:31:15.549Z,6.55
2023-03-18T20:33:48.768Z,6.57
2023-03-18T20:36:21.837Z,6.60
2023-03-18T20:38:56.352Z,6.58
2023-03-18T20:41:29.680Z,6.59
2023-03-18T20:44:04.411Z,6.63
2023-03-18T20:46:37.392Z,6.60
2023-03-18T20:49:10.366Z,6.62
2023-03-18T20:51:44.279Z,6.63
2023-03-18T20:54:19.044Z,6.63
2023-03-18T20:56:52.469Z,6.65
2023-03-18T20:59:27.065Z,6.65
2023-03-18T21:02:00.189Z,6.61
2023-03-18T21:04:33.194Z,6.58
2023-03-18T21:07:06.482Z,6.62
2023-03-18T21:09:39.604Z,6.59
2023-03-18T21:12:16.981Z,6.58
2023-03-18T21:14:52.330Z,6.53
2023-03-18T21:17:27.346Z,6.52
2023-03-18T21:20:15.300Z,6.53
2023-03-18T21:22:54.323Z,6.55
2023-03-18T21:25:28.310Z,6.57
2023-03-18T21:28:01.317Z,6.55
2023-03-18T21:30:35.749Z,6.55
2023-03-18T21:33:18.288Z,6.53
2023-03-18T21:35:52.485Z,6.54
2023-03-18T21:38:26.424Z,6.56
2023-03-18T21:41:00.199Z,6.51
2023-03-18T21:43:34.409Z,6.53
2023-03-18T21:46:12.791Z,6.52
2023-03-18T21:48:46.798Z,6.54
2023-03-18T21:51:37.460Z,6.51
2023-03-18T21:54:17.704Z,6.55
2023-03-18T21:56:50.650Z,6.51
2023-03-18T21:59:23.585Z,6.53
2023-03-18T22:01:58.029Z,6.53
2023-03-18T22:04:31.656Z,6.53
2023-03-18T22:07:07.352Z,6.51
2023-03-18T22:09:41.965Z,6.49
2023-03-18T22:12:18.207Z,6.53
2023-03-18T22:14:51.652Z,6.51
2023-03-18T22:17:28.404Z,6.45
2023-03-18T22:20:02.634Z,6.48
2023-03-18T22:22:36.844Z,6.48
2023-03-18T22:25:17.372Z,6.44
2023-03-18T22:27:50.467Z,6.41
2023-03-18T22:30:24.026Z,6.39
2023-03-18T22:32:58.886Z,6.40
2023-03-18T22:35:32.097Z,6.41
2023-03-18T22:38:05.196Z,6.42
2023-03-18T22:40:42.147Z,6.43
2023-03-18T22:43:30.240Z,6.41
2023-03-18T22:46:04.025Z,6.38
2023-03-18T22:48:38.768Z,6.43
2023-03-18T22:51:19.151Z,6.39
2023-03-18T22:53:52.875Z,6.38
2023-03-18T22:56:25.766Z,6.37
2023-03-18T22:58:58.757Z,6.33
2023-03-18T23:01:32.036Z,6.29
2023-03-18T23:04:06.505Z,6.32
2023-03-18T23:06:39.589Z,6.33
2023-03-18T23:09:12.506Z,6.29
2023-03-18T23:11:47.493Z,6.30
2023-03-18T23:14:21.529Z,6.32
2023-03-18T23:16:54.888Z,6.32
2023-03-18T23:19:29.325Z,6.32
2023-03-18T23:22:02.544Z,6.32
2023-03-18T23:24:35.502Z,6.33
2023-03-18T23:27:08.980Z,6.35
2023-03-18T23:29:43.434Z,6.32
2023-03-18T23:32:17.407Z,6.38
2023-03-18T23:34:51.946Z,6.39
2023-03-18T23:37:25.484Z,6.37
2023-03-18T23:39:58.713Z,6.39
2023-03-18T23:42:31.666Z,6.38
2023-03-18T23:45:05.028Z,6.31
2023-03-18T23:47:38.313Z,6.32
2023-03-18T23:50:13.525Z,6.31
2023-03-18T23:52:46.537Z,6.29
2023-03-18T23:55:33.687Z,6.24
2023-03-18T23:58:13.053Z,6.26
